createdAt,value
2018-07-19T00:01:35.993Z,3.00
2018-07-19T00:04:04.093Z,3.00
2018-07-19T00:06:31.978Z,3.33
2018-07-19T00:08:59.664Z,3.10
2018-07-19T00:11:27.320Z,3.30
2018-07-19T00:13:55.044Z,3.20
2018-07-19T00:16:22.669Z,3.10
2018-07-19T00:18:50.370Z,3.58
2018-07-19T00:21:18.091Z,3.37
2018-07-19T00:23:46.245Z,3.10
2018-07-19T00:26:13.995Z,3.17
2018-07-19T00:28:41.602Z,3.20
2018-07-19T00:31:09.377Z,3.50
2018-07-19T00:33:37.035Z,3.90
2018-07-19T00:36:04.695Z,3.40
2018-07-19T00:38:32.384Z,3.40
2018-07-19T00:41:00.050Z,3.40
2018-07-19T00:43:27.725Z,3.40
2018-07-19T00:45:55.503Z,3.83
2018-07-19T00:48:23.266Z,3.25
2018-07-19T00:50:50.970Z,3.25
2018-07-19T00:53:18.654Z,3.40
2018-07-19T00:55:46.332Z,3.05
2018-07-19T00:58:14.082Z,3.17
2018-07-19T01:00:42.179Z,3.40
2018-07-19T01:03:16.649Z,3.60
2018-07-19T01:05:44.392Z,3.30
2018-07-19T01:08:12.299Z,3.20
2018-07-19T01:10:39.997Z,2.75
2018-07-19T01:13:08.077Z,3.02
2018-07-19T01:15:35.826Z,3.20
2018-07-19T01:18:03.756Z,2.70
2018-07-19T01:20:31.505Z,3.33
2018-07-19T01:22:59.147Z,3.00
2018-07-19T01:25:26.750Z,3.30
2018-07-19T01:27:55.157Z,3.42
2018-07-19T01:30:22.680Z,2.72
2018-07-19T01:32:50.223Z,3.05
2018-07-19T01:35:17.988Z,3.00
2018-07-19T01:37:45.619Z,3.65
2018-07-19T01:40:13.333Z,2.95
2018-07-19T01:42:43.132Z,2.55
2018-07-19T01:45:11.472Z,3.17
2018-07-19T01:47:39.507Z,3.12
2018-07-19T01:50:07.813Z,3.12
2018-07-19T01:52:35.449Z,2.95
2018-07-19T01:55:03.407Z,3.27
2018-07-19T01:57:31.049Z,3.50
2018-07-19T01:59:59.109Z,3.40
2018-07-19T02:02:26.719Z,3.20
2018-07-19T02:04:54.356Z,3.25
2018-07-19T02:07:22.300Z,3.72
2018-07-19T02:09:49.927Z,3.60
2018-07-19T02:12:17.536Z,3.45
2018-07-19T02:14:45.122Z,3.22
2018-07-19T02:17:13.136Z,3.20
2018-07-19T02:19:40.908Z,3.55
2018-07-19T02:22:08.659Z,2.70
2018-07-19T02:24:36.604Z,2.92
2018-07-19T02:27:04.530Z,3.00
2018-07-19T02:29:32.376Z,2.90
2018-07-19T02:32:00.082Z,2.72
2018-07-19T02:34:27.725Z,2.90
2018-07-19T02:36:55.423Z,2.40
2018-07-19T02:39:23.119Z,3.30
2018-07-19T02:41:50.760Z,3.45
2018-07-19T02:44:18.611Z,3.40
2018-07-19T02:46:46.250Z,3.85
2018-07-19T02:49:13.977Z,3.45
2018-07-19T02:51:42.564Z,3.80
2018-07-19T02:54:10.527Z,3.37
2018-07-19T02:56:38.273Z,3.60
2018-07-19T02:59:06.116Z,4.15
2018-07-19T03:01:33.998Z,3.60
2018-07-19T03:04:01.588Z,3.58
2018-07-19T03:06:29.283Z,3.70
2018-07-19T03:08:57.008Z,3.70
2018-07-19T03:11:24.717Z,3.60
2018-07-19T03:13:52.346Z,3.90
2018-07-19T03:16:19.943Z,4.00
2018-07-19T03:18:47.664Z,3.40
2018-07-19T03:21:15.224Z,3.70
2018-07-19T03:23:42.944Z,3.43
2018-07-19T03:26:10.980Z,3.80
2018-07-19T03:28:38.756Z,3.10
2018-07-19T03:31:06.759Z,3.15
2018-07-19T03:33:34.513Z,3.33
2018-07-19T03:36:02.335Z,3.30
2018-07-19T03:38:29.903Z,3.75
2018-07-19T03:40:57.491Z,3.50
2018-07-19T03:43:25.119Z,3.62
2018-07-19T03:45:52.850Z,3.30
2018-07-19T03:48:21.047Z,3.47
2018-07-19T03:50:48.641Z,3.30
2018-07-19T03:53:16.424Z,3.58
2018-07-19T03:55:44.323Z,3.42
2018-07-19T03:58:11.953Z,4.50
2018-07-19T04:00:39.513Z,3.58
2018-07-19T04:03:07.101Z,3.20
2018-07-19T04:05:34.706Z,3.50
2018-07-19T04:08:02.311Z,3.83
2018-07-19T04:10:29.908Z,3.05
2018-07-19T04:12:57.588Z,3.37
2018-07-19T04:15:25.928Z,3.72
2018-07-19T04:17:54.969Z,3.50
2018-07-19T04:20:24.516Z,3.00
2018-07-19T04:22:52.695Z,3.40
2018-07-19T04:25:20.770Z,3.58
2018-07-19T04:27:48.644Z,3.77
2018-07-19T04:30:16.510Z,3.67
2018-07-19T04:32:44.475Z,3.27
2018-07-19T04:35:12.486Z,3.27
2018-07-19T04:37:40.737Z,3.50
2018-07-19T04:40:09.428Z,3.83
2018-07-19T04:42:37.177Z,3.77
2018-07-19T04:45:05.445Z,3.72
2018-07-19T04:47:33.277Z,3.40
2018-07-19T04:50:01.333Z,2.85
2018-07-19T04:52:28.962Z,2.80
2018-07-19T04:54:56.823Z,2.87
2018-07-19T04:57:24.483Z,3.50
2018-07-19T04:59:52.303Z,2.85
2018-07-19T05:02:20.617Z,2.65
2018-07-19T05:04:48.951Z,2.87
2018-07-19T05:07:17.379Z,2.52
2018-07-19T05:09:46.285Z,3.17
2018-07-19T05:12:14.287Z,2.90
2018-07-19T05:14:42.045Z,2.50
2018-07-19T05:17:10.025Z,2.30
2018-07-19T05:19:37.708Z,2.37
2018-07-19T05:22:05.359Z,2.70
2018-07-19T05:24:33.225Z,2.22
2018-07-19T05:27:01.489Z,2.20
2018-07-19T05:29:29.167Z,2.67
2018-07-19T05:31:56.929Z,2.27
2018-07-19T05:34:24.686Z,2.10
2018-07-19T05:36:52.320Z,2.00
2018-07-19T05:39:19.948Z,2.30
2018-07-19T05:41:47.706Z,2.60
2018-07-19T05:44:16.229Z,2.87
2018-07-19T05:46:44.480Z,2.10
2018-07-19T05:49:12.198Z,2.70
2018-07-19T05:51:39.854Z,2.30
2018-07-19T05:54:07.685Z,1.70
2018-07-19T05:56:35.399Z,1.80
2018-07-19T05:59:03.329Z,2.00
2018-07-19T06:01:31.399Z,1.90
2018-07-19T06:03:59.217Z,1.98
2018-07-19T06:06:26.914Z,2.10
2018-07-19T06:08:54.665Z,2.87
2018-07-19T06:11:22.505Z,2.17
2018-07-19T06:13:50.501Z,2.08
2018-07-19T06:16:18.947Z,2.25
2018-07-19T06:18:47.471Z,1.92
2018-07-19T06:21:15.296Z,2.33
2018-07-19T06:23:42.862Z,2.15
2018-07-19T06:26:10.633Z,2.37
2018-07-19T06:28:38.480Z,2.30
2018-07-19T06:31:06.374Z,2.67
2018-07-19T06:33:34.251Z,2.83
2018-07-19T06:36:01.974Z,2.25
2018-07-19T06:38:29.813Z,2.33
2018-07-19T06:40:57.755Z,2.33
2018-07-19T06:43:25.520Z,2.40
2018-07-19T06:45:53.344Z,3.40
2018-07-19T06:48:20.909Z,2.85
2018-07-19T06:50:48.492Z,3.12
2018-07-19T06:53:16.639Z,2.67
2018-07-19T06:55:44.542Z,2.83
2018-07-19T06:58:12.566Z,4.20
2018-07-19T07:00:40.282Z,5.83
2018-07-19T07:03:08.581Z,6.42
2018-07-19T07:05:36.208Z,6.35
2018-07-19T07:08:04.618Z,5.05
2018-07-19T07:10:32.155Z,6.33
2018-07-19T07:15:21.249Z,5.28
2018-07-19T07:17:48.804Z,4.47
2018-07-19T07:20:16.724Z,4.67
2018-07-19T07:22:44.576Z,3.72
2018-07-19T07:25:12.260Z,4.08
2018-07-19T07:27:40.033Z,3.83
2018-07-19T07:30:07.828Z,3.90
2018-07-19T07:32:35.623Z,3.02
2018-07-19T07:35:03.299Z,4.77
2018-07-19T07:37:30.888Z,5.30
2018-07-19T07:39:58.696Z,6.17
2018-07-19T07:42:26.294Z,5.15
2018-07-19T07:44:53.829Z,5.97
2018-07-19T07:47:21.538Z,5.15
2018-07-19T07:49:49.512Z,4.95
2018-07-19T07:52:17.264Z,4.53
2018-07-19T07:54:44.879Z,3.87
2018-07-19T07:57:12.739Z,4.58
2018-07-19T07:59:40.423Z,4.50
2018-07-19T08:02:08.371Z,4.75
2018-07-19T08:04:35.921Z,6.20
2018-07-19T08:07:04.430Z,5.80
2018-07-19T08:09:32.084Z,5.83
2018-07-19T08:11:59.628Z,6.03
2018-07-19T08:14:27.307Z,5.00
2018-07-19T08:16:54.919Z,4.35
2018-07-19T08:19:22.792Z,4.35
2018-07-19T08:21:50.717Z,5.12
2018-07-19T08:24:18.520Z,3.98
2018-07-19T08:26:46.120Z,4.62
2018-07-19T08:29:13.971Z,4.17
2018-07-19T08:31:41.885Z,3.95
2018-07-19T08:34:09.456Z,2.70
2018-07-19T08:36:36.999Z,3.90
2018-07-19T08:39:07.662Z,5.00
2018-07-19T08:41:35.186Z,3.90
2018-07-19T08:44:03.233Z,3.60
2018-07-19T08:46:31.283Z,3.33
2018-07-19T08:48:58.936Z,2.72
2018-07-19T08:51:27.011Z,2.50
2018-07-19T08:53:54.860Z,2.62
2018-07-19T08:56:22.819Z,2.50
2018-07-19T08:58:50.512Z,5.47
2018-07-19T09:01:18.320Z,4.97
2018-07-19T09:03:45.999Z,4.30
2018-07-19T09:06:13.992Z,4.22
2018-07-19T09:08:41.821Z,3.75
2018-07-19T09:11:09.600Z,3.37
2018-07-19T09:13:37.453Z,5.25
2018-07-19T09:16:05.962Z,4.78
2018-07-19T09:18:33.715Z,3.92
2018-07-19T09:21:01.408Z,3.30
2018-07-19T09:23:29.204Z,4.58
2018-07-19T09:25:56.980Z,4.28
2018-07-19T09:28:24.729Z,3.12
2018-07-19T09:30:52.352Z,4.10
2018-07-19T09:33:20.053Z,3.17
2018-07-19T09:35:47.703Z,4.92
2018-07-19T09:38:15.449Z,4.33
2018-07-19T09:40:43.240Z,2.65
2018-07-19T09:43:11.130Z,2.50
2018-07-19T09:45:38.916Z,2.00
2018-07-19T09:48:06.687Z,3.30
2018-07-19T09:50:34.827Z,4.22
2018-07-19T09:53:03.583Z,3.02
2018-07-19T09:55:31.614Z,2.50
2018-07-19T09:57:59.813Z,3.05
2018-07-19T10:00:33.169Z,3.67
2018-07-19T10:03:01.256Z,3.05
2018-07-19T10:05:29.510Z,3.92
2018-07-19T10:07:57.324Z,3.55
2018-07-19T10:10:25.526Z,5.10
2018-07-19T10:12:53.783Z,3.70
2018-07-19T10:15:21.572Z,3.15
2018-07-19T10:17:49.208Z,2.70
2018-07-19T10:20:17.153Z,4.37
2018-07-19T10:22:44.941Z,3.25
2018-07-19T10:25:12.896Z,3.22
2018-07-19T10:27:42.151Z,3.58
2018-07-19T10:30:09.873Z,3.40
2018-07-19T10:32:38.149Z,4.17
2018-07-19T10:35:06.428Z,2.80
2018-07-19T10:37:34.907Z,3.40
2018-07-19T10:40:02.676Z,3.10
2018-07-19T10:42:30.382Z,3.22
2018-07-19T10:44:59.280Z,3.30
2018-07-19T10:47:27.524Z,3.27
2018-07-19T10:49:55.538Z,3.08
2018-07-19T10:52:23.554Z,2.33
2018-07-19T10:54:51.588Z,2.00
2018-07-19T10:57:19.261Z,2.33
2018-07-19T10:59:47.305Z,3.22
2018-07-19T11:02:14.968Z,2.30
2018-07-19T11:04:42.677Z,3.10
2018-07-19T11:07:10.464Z,3.10
2018-07-19T11:09:38.117Z,3.27
2018-07-19T11:12:06.385Z,4.63
2018-07-19T11:14:34.297Z,9.15
2018-07-19T11:17:01.987Z,3.45
2018-07-19T11:19:29.921Z,3.08
2018-07-19T11:21:58.017Z,3.72
2018-07-19T11:24:25.701Z,3.05
2018-07-19T11:26:53.247Z,3.17
2018-07-19T11:29:20.802Z,2.75
2018-07-19T11:31:48.677Z,2.33
2018-07-19T11:34:16.754Z,3.30
2018-07-19T11:36:44.518Z,3.35
2018-07-19T11:39:12.882Z,2.80
2018-07-19T11:41:40.687Z,2.95
2018-07-19T11:44:08.274Z,3.27
2018-07-19T11:46:35.904Z,2.47
2018-07-19T11:49:03.788Z,2.40
2018-07-19T11:51:31.520Z,4.65
2018-07-19T11:53:59.213Z,3.50
2018-07-19T11:56:30.065Z,4.08
2018-07-19T11:58:57.924Z,3.15
2018-07-19T12:01:25.484Z,3.10
2018-07-19T12:03:53.039Z,3.30
2018-07-19T12:06:21.195Z,3.40
2018-07-19T12:08:49.088Z,3.02
2018-07-19T12:11:17.285Z,3.35
2018-07-19T12:13:45.248Z,4.85
2018-07-19T12:16:13.135Z,2.70
2018-07-19T12:18:41.120Z,3.35
2018-07-19T12:21:09.477Z,3.17
2018-07-19T12:23:37.317Z,6.40
2018-07-19T12:26:04.968Z,4.42
2018-07-19T12:28:32.540Z,5.00
2018-07-19T12:31:00.785Z,3.83
2018-07-19T12:33:28.387Z,3.33
2018-07-19T12:35:56.564Z,3.55
2018-07-19T12:38:24.311Z,3.80
2018-07-19T12:40:53.079Z,3.90
2018-07-19T12:43:20.624Z,4.35
2018-07-19T12:45:48.409Z,3.95
2018-07-19T12:48:16.373Z,3.00
2018-07-19T12:50:44.035Z,4.15
2018-07-19T12:53:11.724Z,4.28
2018-07-19T12:55:39.393Z,5.28
2018-07-19T12:58:06.948Z,4.42
2018-07-19T13:00:35.101Z,4.40
2018-07-19T13:03:02.712Z,3.12
2018-07-19T13:05:30.306Z,3.80
2018-07-19T13:07:58.317Z,3.22
2018-07-19T13:10:25.899Z,3.30
2018-07-19T13:12:54.261Z,3.58
2018-07-19T13:15:22.136Z,2.98
2018-07-19T13:17:49.967Z,3.58
2018-07-19T13:20:19.063Z,3.50
2018-07-19T13:22:47.527Z,5.60
2018-07-19T13:25:15.175Z,3.72
2018-07-19T13:27:42.847Z,3.40
2018-07-19T13:30:10.648Z,2.98
2018-07-19T13:32:38.312Z,3.55
2018-07-19T13:35:06.124Z,3.20
2018-07-19T13:37:33.970Z,3.13
2018-07-19T13:40:01.649Z,3.00
2018-07-19T13:42:29.328Z,4.35
2018-07-19T13:44:57.224Z,3.47
2018-07-19T13:47:25.106Z,3.50
2018-07-19T13:49:52.824Z,4.05
2018-07-19T13:52:30.743Z,3.87
2018-07-19T13:54:58.531Z,3.70
2018-07-19T13:57:26.469Z,4.20
2018-07-19T13:59:54.428Z,4.50
2018-07-19T14:02:22.293Z,3.92
2018-07-19T14:04:50.016Z,5.12
2018-07-19T14:07:17.899Z,5.83
2018-07-19T14:09:45.438Z,3.75
2018-07-19T14:12:13.623Z,3.87
2018-07-19T14:14:41.354Z,3.40
2018-07-19T14:17:09.389Z,4.47
2018-07-19T14:19:36.986Z,4.35
2018-07-19T14:22:04.987Z,3.45
2018-07-19T14:24:32.783Z,4.28
2018-07-19T14:27:00.559Z,4.12
2018-07-19T14:29:28.517Z,3.58
2018-07-19T14:31:56.424Z,4.50
2018-07-19T14:34:24.275Z,5.78
2018-07-19T14:36:51.992Z,4.47
2018-07-19T14:39:19.779Z,4.00
2018-07-19T14:41:47.879Z,3.90
2018-07-19T14:44:15.852Z,4.37
2018-07-19T14:46:43.812Z,4.08
2018-07-19T14:49:11.644Z,4.42
2018-07-19T14:51:39.369Z,4.28
2018-07-19T14:54:07.013Z,3.95
2018-07-19T14:56:34.881Z,3.83
2018-07-19T14:59:03.066Z,4.72
2018-07-19T15:01:30.583Z,3.75
2018-07-19T15:03:58.407Z,3.05
2018-07-19T15:06:25.908Z,3.95
2018-07-19T15:08:53.454Z,3.00
2018-07-19T15:11:21.016Z,2.85
2018-07-19T15:13:48.805Z,2.80
2018-07-19T15:16:16.300Z,3.80
2018-07-19T15:18:43.832Z,4.03
2018-07-19T15:21:11.341Z,3.80
2018-07-19T15:23:40.052Z,3.47
2018-07-19T15:26:07.947Z,3.72
2018-07-19T15:28:35.595Z,4.83
2018-07-19T15:31:03.296Z,4.30
2018-07-19T15:36:06.213Z,3.40
2018-07-19T15:38:33.842Z,3.55
2018-07-19T15:41:01.621Z,3.35
2018-07-19T15:43:29.272Z,3.60
2018-07-19T15:45:56.968Z,3.90
2018-07-19T15:48:25.383Z,3.45
2018-07-19T15:50:53.591Z,3.02
2018-07-19T15:53:21.940Z,2.70
2018-07-19T15:55:49.940Z,3.75
2018-07-19T15:58:17.707Z,3.45
2018-07-19T16:00:45.344Z,3.65
2018-07-19T16:03:12.963Z,2.67
2018-07-19T16:05:40.763Z,3.00
2018-07-19T16:08:08.488Z,3.60
2018-07-19T16:10:36.152Z,3.58
2018-07-19T16:13:03.869Z,3.52
2018-07-19T16:15:32.392Z,3.30
2018-07-19T16:18:00.188Z,3.02
2018-07-19T16:20:27.821Z,3.42
2018-07-19T16:22:55.405Z,3.30
2018-07-19T16:25:24.009Z,2.90
2018-07-19T16:27:51.637Z,3.40
2018-07-19T16:30:19.212Z,2.98
2018-07-19T16:32:46.950Z,3.87
2018-07-19T16:35:14.724Z,6.17
2018-07-19T16:37:42.356Z,3.95
2018-07-19T16:40:10.073Z,5.08
2018-07-19T16:42:37.748Z,3.75
2018-07-19T16:45:05.362Z,3.77
2018-07-19T16:47:32.928Z,3.50
2018-07-19T16:50:01.164Z,4.08
2018-07-19T16:52:28.941Z,3.42
2018-07-19T16:54:56.582Z,3.47
2018-07-19T16:57:24.403Z,3.23
2018-07-19T16:59:52.090Z,3.42
2018-07-19T17:02:19.789Z,3.25
2018-07-19T17:04:48.820Z,2.98
2018-07-19T17:07:17.236Z,4.45
2018-07-19T17:09:45.156Z,3.65
2018-07-19T17:12:12.761Z,3.30
2018-07-19T17:14:40.954Z,3.20
2018-07-19T17:17:08.641Z,3.12
2018-07-19T17:19:36.216Z,3.27
2018-07-19T17:22:03.992Z,3.80
2018-07-19T17:24:31.757Z,3.92
2018-07-19T17:26:59.392Z,3.10
2018-07-19T17:29:27.373Z,3.98
2018-07-19T17:31:55.492Z,4.05
2018-07-19T17:34:23.417Z,3.50
2018-07-19T17:36:51.080Z,4.00
2018-07-19T17:39:18.880Z,4.70
2018-07-19T17:41:47.005Z,4.72
2018-07-19T17:44:14.669Z,3.85
2018-07-19T17:46:42.526Z,3.25
2018-07-19T17:49:10.194Z,3.75
2018-07-19T17:51:37.779Z,3.13
2018-07-19T17:54:06.180Z,2.83
2018-07-19T17:56:33.884Z,2.50
2018-07-19T17:59:01.564Z,2.20
2018-07-19T18:01:29.632Z,2.72
2018-07-19T18:03:57.257Z,2.30
2018-07-19T18:06:26.310Z,2.33
2018-07-19T18:08:54.349Z,2.92
2018-07-19T18:11:22.901Z,3.05
2018-07-19T18:13:50.473Z,2.72
2018-07-19T18:16:18.391Z,2.40
2018-07-19T18:18:46.080Z,2.80
2018-07-19T18:21:14.014Z,3.00
2018-07-19T18:23:41.656Z,3.08
2018-07-19T18:26:10.392Z,3.80
2018-07-19T18:28:38.397Z,3.02
2018-07-19T18:31:07.022Z,3.20
2018-07-19T18:33:34.998Z,3.33
2018-07-19T18:36:03.040Z,2.80
2018-07-19T18:38:30.723Z,2.70
2018-07-19T18:40:58.409Z,3.20
2018-07-19T18:43:26.025Z,2.65
2018-07-19T18:45:53.610Z,2.62
2018-07-19T18:48:22.029Z,2.70
2018-07-19T18:50:50.105Z,2.97
2018-07-19T18:53:17.929Z,2.30
2018-07-19T18:55:45.565Z,2.58
2018-07-19T18:58:13.304Z,2.58
2018-07-19T19:00:40.919Z,2.50
2018-07-19T19:03:08.581Z,2.80
2018-07-19T19:05:36.255Z,2.80
2018-07-19T19:08:04.176Z,2.35
2018-07-19T19:10:31.769Z,2.02
2018-07-19T19:12:59.400Z,2.12
2018-07-19T19:15:27.382Z,2.08
2018-07-19T19:17:55.109Z,2.52
2018-07-19T19:20:22.940Z,2.40
2018-07-19T19:22:50.776Z,2.30
2018-07-19T19:25:18.729Z,2.20
2018-07-19T19:27:46.420Z,2.10
2018-07-19T19:30:14.237Z,2.05
2018-07-19T19:32:41.960Z,2.30
2018-07-19T19:35:10.166Z,2.50
2018-07-19T19:37:39.218Z,2.20
2018-07-19T19:40:07.145Z,2.67
2018-07-19T19:42:34.841Z,2.30
2018-07-19T19:45:02.579Z,2.83
2018-07-19T19:47:30.400Z,2.62
2018-07-19T19:49:58.010Z,3.05
2018-07-19T19:52:25.680Z,2.50
2018-07-19T19:54:53.448Z,3.20
2018-07-19T19:57:21.341Z,3.08
2018-07-19T19:59:49.021Z,2.95
2018-07-19T20:02:16.963Z,2.90
2018-07-19T20:04:44.633Z,2.87
2018-07-19T20:07:12.930Z,3.00
2018-07-19T20:09:40.532Z,2.75
2018-07-19T20:12:08.308Z,2.52
2018-07-19T20:14:36.016Z,3.05
2018-07-19T20:17:04.280Z,2.42
2018-07-19T20:19:32.604Z,2.90
2018-07-19T20:22:00.314Z,2.83
2018-07-19T20:24:28.036Z,2.40
2018-07-19T20:26:55.721Z,2.80
2018-07-19T20:29:23.349Z,2.90
2018-07-19T20:31:51.120Z,2.52
2018-07-19T20:34:20.564Z,2.37
2018-07-19T20:36:46.862Z,2.40
2018-07-19T20:39:14.401Z,2.60
2018-07-19T20:41:41.986Z,2.90
2018-07-19T20:44:09.552Z,3.55
2018-07-19T20:46:37.127Z,2.70
2018-07-19T20:49:05.137Z,3.15
2018-07-19T20:51:33.426Z,2.90
2018-07-19T20:54:01.351Z,2.77
2018-07-19T20:56:29.040Z,3.05
2018-07-19T20:58:56.672Z,3.00
2018-07-19T21:01:24.571Z,2.80
2018-07-19T21:03:52.381Z,3.02
2018-07-19T21:06:19.932Z,3.45
2018-07-19T21:08:47.494Z,3.87
2018-07-19T21:11:15.112Z,3.98
2018-07-19T21:13:42.708Z,3.42
2018-07-19T21:16:10.282Z,3.70
2018-07-19T21:18:37.814Z,3.25
2018-07-19T21:21:05.518Z,3.37
2018-07-19T21:23:33.055Z,3.20
2018-07-19T21:26:00.623Z,3.42
2018-07-19T21:28:28.427Z,3.45
2018-07-19T21:30:56.067Z,3.58
2018-07-19T21:33:23.603Z,3.80
2018-07-19T21:35:51.217Z,3.62
2018-07-19T21:38:18.767Z,3.80
2018-07-19T21:40:46.322Z,3.95
2018-07-19T21:43:13.900Z,3.98
2018-07-19T21:45:41.484Z,3.80
2018-07-19T21:48:09.016Z,3.60
2018-07-19T21:50:36.552Z,3.80
2018-07-19T21:53:04.351Z,3.95
2018-07-19T21:55:32.021Z,3.60
2018-07-19T21:57:59.532Z,3.62
2018-07-19T22:00:29.116Z,3.20
2018-07-19T22:02:57.246Z,3.50
2018-07-19T22:05:24.828Z,3.40
2018-07-19T22:07:52.411Z,3.52
2018-07-19T22:10:19.944Z,3.85
2018-07-19T22:12:47.510Z,3.62
2018-07-19T22:15:15.070Z,4.65
2018-07-19T22:17:42.592Z,3.80
2018-07-19T22:20:10.144Z,4.00
2018-07-19T22:22:37.920Z,4.28
2018-07-19T22:25:05.791Z,4.45
2018-07-19T22:27:33.331Z,4.05
2018-07-19T22:30:00.857Z,3.95
2018-07-19T22:32:28.432Z,4.12
2018-07-19T22:34:55.950Z,4.47
2018-07-19T22:37:23.464Z,4.42
2018-07-19T22:39:51.030Z,4.55
2018-07-19T22:42:18.612Z,3.95
2018-07-19T22:44:46.466Z,4.08
2018-07-19T22:47:13.977Z,4.12
2018-07-19T22:49:41.499Z,3.80
2018-07-19T22:52:09.109Z,3.77
2018-07-19T22:54:36.664Z,3.95
2018-07-19T22:57:04.475Z,3.50
2018-07-19T22:59:32.057Z,3.55
2018-07-19T23:01:59.667Z,4.50
2018-07-19T23:04:27.189Z,3.70
2018-07-19T23:06:54.749Z,3.75
2018-07-19T23:09:22.303Z,3.90
2018-07-19T23:11:49.838Z,3.73
2018-07-19T23:14:17.477Z,4.50
2018-07-19T23:16:45.052Z,4.58
2018-07-19T23:19:12.611Z,3.60
2018-07-19T23:21:40.135Z,3.75
2018-07-19T23:24:07.675Z,3.83
2018-07-19T23:26:35.273Z,3.70
2018-07-19T23:29:02.874Z,4.10
2018-07-19T23:31:30.531Z,4.22
2018-07-19T23:33:58.199Z,4.20
2018-07-19T23:36:35.316Z,3.55
2018-07-19T23:40:08.175Z,4.03
2018-07-19T23:42:38.612Z,4.60
2018-07-19T23:47:16.525Z,4.15
2018-07-19T23:49:44.003Z,4.78
2018-07-19T23:52:11.642Z,4.22
2018-07-19T23:54:39.217Z,4.28
2018-07-19T23:57:06.679Z,4.75
2018-07-19T23:59:34.260Z,4.20
